Time;durP1;ratioP1;P1;durP2;ratioP2;P2;SDS_P1;SDS_P2;PMS_P1;PMS_P2;Temp;Humidity;BMP_temperature;BMP_pressure;BME280_temperature;BME280_humidity;BME280_pressure;Samples;Min_cycle;Max_cycle;Signal;HPM_P1;HPM_P2
2023/08/15 00:02:59;;;;;;;5.63;4.35;;;;;;;23.86;85.42;99985.94;10297064;28;20622;-49
2023/08/15 00:08:01;;;;;;;6.93;4.88;;;;;;;23.82;86.07;99979.22;10272511;28;20057;-50
2023/08/15 00:13:03;;;;;;;6.75;5.25;;;;;;;23.62;86.36;99979.34;10299094;28;20054;-50
2023/08/15 00:18:05;;;;;;;5.32;4.82;;;;;;;23.62;86.72;99966.56;10296599;28;20060;-49
2023/08/15 00:23:06;;;;;;;4.95;4.03;;;;;;;23.66;87.03;99956.13;10291385;28;20057;-49
2023/08/15 00:28:08;;;;;;;6.13;4.30;;;;;;;23.65;86.93;99952.56;10293062;28;20185;-49
2023/08/15 00:33:09;;;;;;;5.53;4.70;;;;;;;23.64;87.06;99961.78;10295302;28;20145;-49
2023/08/15 00:38:11;;;;;;;5.22;4.63;;;;;;;23.65;87.16;99966.13;10297150;28;20049;-50
2023/08/15 00:43:17;;;;;;;8.98;4.00;;;;;;;23.63;86.85;99954.66;10284766;28;20261;-51
2023/08/15 00:48:20;;;;;;;5.72;4.20;;;;;;;23.61;86.79;99943.16;10299731;28;20232;-49
2023/08/15 00:53:22;;;;;;;6.22;4.57;;;;;;;23.57;87.20;99935.66;10299573;28;20057;-49
2023/08/15 00:58:28;;;;;;;6.07;5.00;;;;;;;23.53;87.43;99929.84;10299286;28;20065;-50
2023/08/15 01:03:29;;;;;;;7.28;4.43;;;;;;;23.45;87.42;99922.78;10301968;28;20141;-49
2023/08/15 01:08:31;;;;;;;5.75;4.32;;;;;;;23.42;88.36;99925.94;10303562;28;20046;-49
2023/08/15 01:13:45;;;;;;;4.88;4.30;;;;;;;23.41;88.34;99932.41;10298746;28;20049;-49
2023/08/15 01:18:55;;;;;;;5.30;4.72;;;;;;;23.40;88.71;99938.06;10294127;28;20189;-49
2023/08/15 01:23:57;;;;;;;5.20;4.20;;;;;;;23.38;88.50;99940.16;10302202;28;20172;-50
2023/08/15 01:28:58;;;;;;;5.38;4.38;;;;;;;23.37;88.38;99941.19;10306256;28;20057;-49
2023/08/15 01:34:12;;;;;;;6.93;4.07;;;;;;;23.35;88.55;99924.31;10305303;28;20624;-49
2023/08/15 01:39:28;;;;;;;7.22;4.70;;;;;;;23.33;88.53;99931.81;10303914;28;20867;-50
2023/08/15 01:44:32;;;;;;;5.88;4.68;;;;;;;23.32;88.66;99927.44;10302159;28;20145;-50
2023/08/15 01:49:33;;;;;;;;;;;;;;;23.28;89.17;99929.75;10305412;28;20668;-49
2023/08/15 01:54:34;;;;;;;7.05;4.53;;;;;;;23.24;89.25;99932.06;10303638;28;21173;-50
2023/08/15 01:59:36;;;;;;;5.32;4.25;;;;;;;23.20;89.35;99922.69;10289803;28;20137;-50
2023/08/15 02:04:37;;;;;;;5.18;4.47;;;;;;;23.16;89.87;99928.75;10302754;28;20131;-49
2023/08/15 02:09:39;;;;;;;4.38;3.97;;;;;;;23.14;89.67;99931.69;10300810;28;20134;-49
2023/08/15 02:14:40;;;;;;;6.85;4.93;;;;;;;23.11;89.90;99918.53;10302209;28;20220;-50
2023/08/15 02:19:41;;;;;;;7.47;4.70;;;;;;;23.10;89.75;99917.72;10306188;28;20054;-49
2023/08/15 02:24:43;;;;;;;6.78;4.80;;;;;;;23.09;90.04;99926.03;10300518;28;20053;-49
2023/08/15 02:29:44;;;;;;;5.47;4.72;;;;;;;23.06;89.87;99923.72;10309201;28;20852;-49
2023/08/15 02:34:46;;;;;;;6.88;4.97;;;;;;;23.03;90.46;99922.28;10304220;28;20058;-49
2023/08/15 02:39:47;;;;;;;6.05;5.10;;;;;;;23.00;90.12;99928.16;10305622;28;20089;-49
2023/08/15 02:44:48;;;;;;;4.75;4.22;;;;;;;22.91;91.20;99938.41;10305902;28;20062;-49
2023/08/15 02:49:50;;;;;;;5.18;4.65;;;;;;;22.88;91.90;99940.69;10304661;28;20135;-50
2023/08/15 02:54:51;;;;;;;4.38;4.00;;;;;;;22.89;91.56;99939.66;10301566;28;20053;-49
2023/08/15 02:59:53;;;;;;;4.18;3.75;;;;;;;22.85;90.10;99973.66;10302125;28;20125;-50
2023/08/15 03:04:54;;;;;;;4.80;4.40;;;;;;;22.73;91.50;99992.50;10301920;28;20135;-49
2023/08/15 03:09:56;;;;;;;6.80;4.63;;;;;;;22.77;90.94;99993.72;10304957;28;20057;-49
2023/08/15 03:14:57;;;;;;;6.45;5.15;;;;;;;22.59;90.26;99997.06;10301303;28;20176;-50
2023/08/15 03:19:59;;;;;;;7.90;6.07;;;;;;;22.41;92.80;100000.41;10299463;28;20053;-50
2023/08/15 03:25:00;;;;;;;6.75;5.05;;;;;;;22.28;93.53;100005.78;10299609;28;20050;-49
2023/08/15 03:30:02;;;;;;;6.20;5.40;;;;;;;22.32;94.02;99986.19;10298498;28;20046;-49
2023/08/15 03:35:04;;;;;;;7.28;5.25;;;;;;;22.39;92.42;99997.06;10302169;28;20050;-49
2023/08/15 03:40:07;;;;;;;6.38;5.00;;;;;;;22.39;94.61;99964.53;10304243;28;20070;-50
2023/08/15 03:45:09;;;;;;;9.48;5.00;;;;;;;22.47;94.48;99956.16;10298570;28;20094;-49
2023/08/15 03:50:10;;;;;;;6.57;5.50;;;;;;;22.50;95.78;99949.50;10298103;28;20750;-49
2023/08/15 03:55:12;;;;;;;5.40;4.85;;;;;;;22.59;96.83;99950.97;10286259;28;20049;-49
2023/08/15 04:00:18;;;;;;;7.38;6.50;;;;;;;22.48;99.29;99995.81;10303438;28;20056;-48
2023/08/15 04:05:19;;;;;;;12.73;8.48;;;;;;;22.47;100.00;99955.34;10293999;28;20055;-48
2023/08/15 04:10:21;;;;;;;6.72;5.88;;;;;;;22.45;100.00;99998.94;10302989;28;20049;-50
2023/08/15 04:15:23;;;;;;;7.38;6.45;;;;;;;22.58;100.00;100017.94;10298701;28;20058;-50
2023/08/15 04:20:27;;;;;;;8.27;7.32;;;;;;;22.63;100.00;100025.44;10308171;28;20145;-50
2023/08/15 04:25:28;;;;;;;8.85;7.57;;;;;;;22.65;100.00;100030.66;10309670;28;20144;-50
2023/08/15 04:30:32;;;;;;;7.35;6.43;;;;;;;22.64;100.00;100092.22;10311298;28;20077;-50
2023/08/15 04:35:34;;;;;;;6.47;5.88;;;;;;;22.60;100.00;100059.25;10310112;28;20054;-50
2023/08/15 04:40:43;;;;;;;9.10;6.75;;;;;;;22.65;100.00;100082.22;10310829;28;20038;-50
2023/08/15 04:45:45;;;;;;;8.23;7.13;;;;;;;22.65;100.00;100139.16;10310099;28;20503;-51
2023/08/15 04:50:46;;;;;;;10.35;7.57;;;;;;;22.64;100.00;100172.75;10308145;28;20571;-50
2023/08/15 04:55:48;;;;;;;9.10;6.93;;;;;;;22.66;100.00;100138.16;10309437;28;20054;-51
2023/08/15 05:00:49;;;;;;;5.35;4.90;;;;;;;22.67;100.00;100124.38;10308625;28;20058;-50
2023/08/15 05:05:51;;;;;;;5.53;4.32;;;;;;;22.65;100.00;100107.44;10310691;28;20819;-50
2023/08/15 05:10:52;;;;;;;4.88;3.63;;;;;;;22.69;100.00;100048.19;10309182;28;20054;-50
2023/08/15 05:15:54;;;;;;;2.88;2.58;;;;;;;22.73;100.00;100038.63;10306879;28;20065;-50
2023/08/15 05:20:55;;;;;;;3.17;2.53;;;;;;;22.71;100.00;100010.84;10307810;28;20061;-50
2023/08/15 05:25:57;;;;;;;2.55;2.20;;;;;;;22.70;99.39;100015.44;10305555;28;20045;-50
2023/08/15 05:30:58;;;;;;;2.38;2.10;;;;;;;22.71;99.84;100005.41;10308505;28;20066;-49
2023/08/15 05:36:00;;;;;;;2.30;2.10;;;;;;;22.71;97.42;99994.56;10308494;28;20251;-51
2023/08/15 05:41:01;;;;;;;2.83;2.58;;;;;;;22.70;98.58;100009.16;10304509;28;20064;-50
2023/08/15 05:46:03;;;;;;;3.33;3.03;;;;;;;22.73;99.83;100008.78;10305189;28;20053;-50
2023/08/15 05:51:04;;;;;;;4.50;2.65;;;;;;;22.74;99.99;100014.00;10311337;28;20197;-51
2023/08/15 05:56:06;;;;;;;5.47;3.85;;;;;;;22.78;99.51;100036.09;10306489;28;20082;-50
2023/08/15 06:01:08;;;;;;;5.38;4.43;;;;;;;22.86;100.00;100037.75;10306449;28;20384;-51
2023/08/15 06:06:10;;;;;;;4.40;3.85;;;;;;;22.97;100.00;100044.44;10305701;28;20046;-51
2023/08/15 06:11:11;;;;;;;5.43;4.30;;;;;;;23.06;100.00;100041.28;10307698;28;20061;-51
2023/08/15 06:16:12;;;;;;;6.78;4.78;;;;;;;23.13;100.00;100049.44;10305960;28;20069;-51
2023/08/15 06:21:14;;;;;;;8.73;5.25;;;;;;;23.20;100.00;100058.44;10295408;28;20054;-51
2023/08/15 06:26:16;;;;;;;5.50;4.90;;;;;;;23.21;100.00;100053.81;10288873;28;20074;-50
2023/08/15 06:31:17;;;;;;;7.40;5.25;;;;;;;23.20;100.00;100066.56;10269656;28;20057;-51
2023/08/15 06:36:19;;;;;;;7.22;6.50;;;;;;;23.20;100.00;100063.84;10276440;28;20081;-51
2023/08/15 06:41:23;;;;;;;7.70;6.95;;;;;;;23.16;100.00;100072.63;10291199;28;20050;-51
2023/08/15 06:46:25;;;;;;;7.65;6.88;;;;;;;23.27;100.00;100083.69;10289856;28;20072;-50
2023/08/15 06:51:27;;;;;;;8.13;7.35;;;;;;;23.28;100.00;100088.09;10292466;28;20096;-51
2023/08/15 06:56:28;;;;;;;11.40;8.20;;;;;;;23.42;100.00;100086.19;10288145;28;20573;-51
2023/08/15 07:01:30;;;;;;;7.32;6.63;;;;;;;23.60;100.00;100090.94;10290718;28;20127;-50
2023/08/15 07:06:32;;;;;;;10.05;7.85;;;;;;;23.76;99.11;100088.78;10293184;28;20046;-51
2023/08/15 07:11:33;;;;;;;8.38;7.53;;;;;;;23.89;98.70;100088.78;10292149;28;20058;-51
2023/08/15 07:16:35;;;;;;;8.70;7.90;;;;;;;23.98;96.96;100089.38;10286396;28;20046;-51
2023/08/15 07:21:39;;;;;;;6.38;5.78;;;;;;;24.02;95.73;100087.03;10289116;28;20065;-51
2023/08/15 07:26:41;;;;;;;5.32;4.43;;;;;;;24.17;93.24;100087.63;10289523;28;20140;-51
2023/08/15 07:31:43;;;;;;;4.88;4.38;;;;;;;24.29;91.91;100082.31;10282322;28;20141;-51
2023/08/15 07:36:44;;;;;;;5.32;4.32;;;;;;;24.47;92.30;100084.28;10286701;28;20912;-51
2023/08/15 07:41:46;;;;;;;3.85;2.88;;;;;;;24.54;87.01;100101.41;10287003;28;20053;-51
2023/08/15 07:46:47;;;;;;;3.83;2.42;;;;;;;24.58;85.23;100107.25;10289386;28;20096;-51
2023/08/15 07:51:49;;;;;;;3.92;2.67;;;;;;;24.74;86.29;100116.78;10286549;28;20054;-51
2023/08/15 07:56:50;;;;;;;3.53;2.00;;;;;;;24.73;84.75;100115.16;10290276;28;20069;-51
2023/08/15 08:01:52;;;;;;;3.08;2.38;;;;;;;24.83;82.97;100119.03;10287234;28;20049;-51
2023/08/15 08:06:53;;;;;;;2.80;1.80;;;;;;;24.97;82.11;100127.09;10289301;28;20081;-51
2023/08/15 08:11:55;;;;;;;5.28;3.53;;;;;;;25.24;80.32;100149.50;10286514;28;20180;-51
2023/08/15 08:16:57;;;;;;;2.60;2.40;;;;;;;25.34;78.69;100143.56;10272571;28;20053;-51
2023/08/15 08:21:58;;;;;;;3.08;2.42;;;;;;;25.38;78.50;100142.88;10284322;28;20583;-50
2023/08/15 08:26:59;;;;;;;3.92;2.75;;;;;;;25.55;78.99;100131.41;10286222;28;20779;-50
2023/08/15 08:32:01;;;;;;;3.67;2.72;;;;;;;25.65;76.54;100134.47;10280722;28;20495;-49
2023/08/15 08:37:02;;;;;;;3.25;2.28;;;;;;;25.71;78.45;100143.63;10288508;28;20057;-51
2023/08/15 08:42:04;;;;;;;3.50;3.13;;;;;;;25.91;78.04;100121.56;10286129;28;20404;-50
2023/08/15 08:47:06;;;;;;;7.00;4.23;;;;;;;25.97;75.74;100117.94;10285548;28;20784;-50
2023/08/15 08:52:08;;;;;;;7.53;3.92;;;;;;;26.07;77.81;100123.72;10287842;28;20127;-50
2023/08/15 08:57:10;;;;;;;6.53;3.87;;;;;;;26.22;77.19;100122.50;10287382;28;20080;-50
2023/08/15 09:02:16;;;;;;;6.27;3.90;;;;;;;26.31;73.41;100126.56;10291633;28;20143;-50
2023/08/15 09:07:17;;;;;;;8.88;4.35;;;;;;;26.48;74.59;100132.19;10275739;28;20620;-50
2023/08/15 09:12:36;;;;;;;6.83;3.67;;;;;;;26.63;74.38;100145.44;10293654;28;20151;-51
2023/08/15 09:17:38;;;;;;;5.57;4.80;;;;;;;26.89;73.11;100138.78;10293488;28;20081;-50
2023/08/15 09:22:44;;;;;;;;;;;;;;;26.80;70.32;100146.47;10294653;28;20203;-50
2023/08/15 09:27:45;;;;;;;4.97;3.88;;;;;;;26.71;72.51;100141.56;10292276;28;20095;-50
2023/08/15 09:32:47;;;;;;;4.70;4.00;;;;;;;26.78;71.80;100131.38;10287854;28;20139;-50
2023/08/15 09:37:50;;;;;;;4.87;4.27;;;;;;;27.11;73.11;100136.34;10296193;28;20054;-51
2023/08/15 09:42:52;;;;;;;;;;;;;;;27.19;70.38;100135.16;10295176;28;20053;-50
2023/08/15 09:47:55;;;;;;;6.78;4.50;;;;;;;27.20;71.54;100133.22;10278361;28;19936;-50
2023/08/15 09:52:58;;;;;;;6.20;4.78;;;;;;;27.35;70.10;100141.81;10289498;28;20098;-50
2023/08/15 09:57:59;;;;;;;4.93;4.13;;;;;;;27.45;68.74;100143.97;10290773;28;20657;-50
2023/08/15 10:03:09;;;;;;;3.45;3.15;;;;;;;27.51;69.29;100146.56;10300709;28;20530;-51
2023/08/15 10:08:11;;;;;;;5.18;3.47;;;;;;;27.72;68.07;100147.03;10296220;28;20768;-50
2023/08/15 10:13:13;;;;;;;3.60;2.78;;;;;;;28.05;67.29;100145.59;10297420;28;20056;-51
2023/08/15 10:18:15;;;;;;;4.10;3.80;;;;;;;28.21;68.15;100144.00;10293714;28;20058;-50
2023/08/15 10:23:34;;;;;;;4.60;4.18;;;;;;;28.12;65.28;100145.44;10295798;28;20491;-56
2023/08/15 10:28:35;;;;;;;3.58;2.90;;;;;;;28.06;66.44;100155.47;10298682;28;21363;-57
2023/08/15 10:33:37;;;;;;;3.13;2.33;;;;;;;27.99;64.51;100161.06;10291169;28;20551;-57
2023/08/15 10:38:40;;;;;;;2.40;2.20;;;;;;;27.89;63.30;100157.25;10282370;28;20065;-56
2023/08/15 10:43:48;;;;;;;3.20;2.33;;;;;;;27.75;63.02;100152.03;10282033;28;20049;-56
2023/08/15 10:48:53;;;;;;;3.55;2.25;;;;;;;27.64;63.10;100164.66;10293445;28;20091;-57
2023/08/15 10:54:13;;;;;;;2.65;2.33;;;;;;;27.46;61.33;100162.03;10281289;28;20122;-56
2023/08/15 10:59:17;;;;;;;3.22;2.42;;;;;;;27.24;63.68;100183.63;10292512;28;20084;-56
2023/08/15 11:04:23;;;;;;;2.88;1.73;;;;;;;27.05;62.61;100191.88;10296944;28;20216;-57
2023/08/15 11:09:31;;;;;;;5.03;1.90;;;;;;;26.94;67.66;100200.88;10300317;28;20138;-56
2023/08/15 11:14:33;;;;;;;3.60;1.92;;;;;;;26.84;68.77;100211.53;10296809;28;20086;-55
2023/08/15 11:19:35;;;;;;;5.13;1.88;;;;;;;26.64;69.56;100218.06;10294087;28;20077;-56
2023/08/15 11:24:37;;;;;;;2.67;2.20;;;;;;;26.59;70.02;100212.50;10282536;28;20072;-56
2023/08/15 11:29:39;;;;;;;3.63;1.95;;;;;;;26.45;71.64;100237.22;10295707;28;20054;-55
2023/08/15 11:34:41;;;;;;;3.40;1.90;;;;;;;26.22;71.96;100226.16;10293514;28;20054;-55
2023/08/15 11:39:50;;;;;;;2.22;2.03;;;;;;;26.09;73.62;100216.22;10288105;28;20049;-55
2023/08/15 11:45:08;;;;;;;4.03;2.30;;;;;;;25.76;74.93;100188.25;10287319;28;20099;-55
2023/08/15 11:50:10;;;;;;;3.35;2.53;;;;;;;25.66;79.15;100223.34;10288469;28;20120;-55
2023/08/15 11:55:12;;;;;;;5.30;2.67;;;;;;;25.41;81.63;100221.44;10289453;28;20064;-55
2023/08/15 12:00:18;;;;;;;2.58;1.92;;;;;;;25.38;82.33;100213.72;10290770;28;20657;-56
2023/08/15 12:05:20;;;;;;;4.35;2.10;;;;;;;25.40;80.14;100208.91;10277885;28;20068;-55
2023/08/15 12:10:22;;;;;;;4.07;2.63;;;;;;;25.36;79.73;100188.59;10276829;28;20110;-55
2023/08/15 12:15:23;;;;;;;4.07;2.40;;;;;;;25.36;80.42;100194.06;10290675;28;20507;-57
2023/08/15 12:20:25;;;;;;;3.53;2.50;;;;;;;25.32;77.28;100203.72;10288311;28;20060;-55
2023/08/15 12:25:28;;;;;;;3.28;2.50;;;;;;;25.32;77.63;100220.06;10288478;28;20046;-55
2023/08/15 12:30:29;;;;;;;;;;;;;;;25.46;76.92;100217.22;10288934;28;20057;-55
2023/08/15 12:35:34;;;;;;;3.03;2.60;;;;;;;25.51;75.57;100212.78;10286122;28;20032;-55
2023/08/15 12:40:36;;;;;;;5.03;3.78;;;;;;;25.50;76.74;100207.56;10300003;28;20137;-55
2023/08/15 12:45:38;;;;;;;5.18;2.33;;;;;;;25.55;76.32;100210.44;10281474;28;20054;-55
2023/08/15 12:50:40;;;;;;;11.30;3.83;;;;;;;25.67;77.14;100216.00;10294646;28;20057;-55
2023/08/15 12:55:41;;;;;;;6.20;2.60;;;;;;;25.64;76.19;100219.16;10298154;28;20139;-55
2023/08/15 13:00:43;;;;;;;4.95;2.55;;;;;;;25.53;77.30;100223.47;10296718;28;20053;-55
2023/08/15 13:05:47;;;;;;;7.68;2.58;;;;;;;25.46;78.33;100223.53;10295636;28;20133;-55
2023/08/15 13:10:48;;;;;;;5.70;2.60;;;;;;;25.38;78.22;100224.63;10298487;28;20156;-55
2023/08/15 13:15:50;;;;;;;4.45;3.50;;;;;;;25.18;79.25;100221.22;10298430;28;20382;-55
2023/08/15 13:20:52;;;;;;;4.00;2.50;;;;;;;25.28;80.34;100232.44;10297379;28;20133;-56
2023/08/15 13:25:54;;;;;;;5.43;2.78;;;;;;;25.19;81.01;100255.53;10295862;28;20067;-56
2023/08/15 13:30:55;;;;;;;3.97;2.53;;;;;;;25.14;81.27;100255.38;10292627;28;20146;-55
2023/08/15 13:35:57;;;;;;;3.85;2.63;;;;;;;25.08;81.00;100248.09;10291770;28;20621;-56
2023/08/15 13:40:58;;;;;;;5.97;3.15;;;;;;;25.01;79.88;100248.97;10294474;28;20129;-55
2023/08/15 13:46:05;;;;;;;3.25;2.80;;;;;;;24.91;80.36;100237.72;10295707;28;20140;-55
2023/08/15 13:51:15;;;;;;;4.63;2.90;;;;;;;24.88;83.67;100246.31;10278687;28;20069;-56
2023/08/15 13:56:17;;;;;;;2.80;2.35;;;;;;;24.69;84.81;100239.91;10283532;28;20418;-60
2023/08/15 14:01:18;;;;;;;3.13;2.63;;;;;;;24.70;86.89;100226.09;10295092;28;20053;-56
2023/08/15 14:06:20;;;;;;;3.40;3.10;;;;;;;24.69;86.46;100213.53;10297546;28;20034;-56
2023/08/15 14:11:21;;;;;;;4.97;3.22;;;;;;;24.93;86.87;100205.66;10292044;28;20798;-56
2023/08/15 14:16:23;;;;;;;4.50;2.90;;;;;;;24.98;85.67;100210.44;10294502;28;20057;-56
2023/08/15 14:21:24;;;;;;;5.47;3.20;;;;;;;24.96;87.37;100191.59;10292617;28;20606;-56
2023/08/15 14:26:26;;;;;;;3.25;2.40;;;;;;;24.99;85.92;100182.97;10293523;28;20714;-56
2023/08/15 14:31:28;;;;;;;3.22;2.90;;;;;;;24.88;83.80;100180.97;10287323;28;20156;-56
2023/08/15 14:36:29;;;;;;;4.05;2.42;;;;;;;24.91;85.66;100177.00;10291233;28;20189;-50
2023/08/15 14:41:33;;;;;;;4.85;2.55;;;;;;;25.05;86.23;100190.28;10294577;28;20042;-54
2023/08/15 14:46:34;;;;;;;4.95;3.45;;;;;;;25.19;85.00;100195.63;10296361;28;20050;-54
2023/08/15 14:51:36;;;;;;;3.95;3.28;;;;;;;25.14;83.61;100199.00;10296809;28;20058;-53
2023/08/15 14:56:37;;;;;;;3.45;2.60;;;;;;;25.18;84.25;100213.03;10276266;28;20068;-53
2023/08/15 15:01:38;;;;;;;5.63;3.25;;;;;;;25.30;84.55;100200.38;10295428;28;20058;-53
2023/08/15 15:06:40;;;;;;;5.00;3.60;;;;;;;25.31;83.93;100204.78;10297049;28;20698;-54
2023/08/15 15:11:42;;;;;;;5.53;3.55;;;;;;;25.44;83.89;100201.09;10292955;28;20582;-53
2023/08/15 15:16:43;;;;;;;5.88;3.15;;;;;;;25.43;83.87;100212.22;10294546;28;20112;-53
2023/08/15 15:21:45;;;;;;;4.15;3.33;;;;;;;25.40;82.74;100208.91;10291130;28;20054;-52
2023/08/15 15:26:47;;;;;;;3.28;2.83;;;;;;;25.34;84.02;100208.94;10274974;28;20046;-53
2023/08/15 15:31:48;;;;;;;3.83;3.20;;;;;;;25.32;84.41;100203.72;10291596;28;20058;-53
2023/08/15 15:36:50;;;;;;;6.32;4.72;;;;;;;25.31;84.62;100212.97;10292019;28;20064;-53
2023/08/15 15:41:51;;;;;;;6.57;4.53;;;;;;;25.29;84.97;100201.41;10282064;28;20085;-52
2023/08/15 15:46:53;;;;;;;7.30;4.22;;;;;;;25.11;83.18;100213.06;10269737;28;20053;-52
2023/08/15 15:51:56;;;;;;;;;;;;;;;24.97;84.76;100231.38;10288632;28;20088;-53
2023/08/15 15:56:57;;;;;;;4.90;3.33;;;;;;;24.92;85.02;100223.06;10289388;28;19963;-52
2023/08/15 16:01:58;;;;;;;4.60;3.45;;;;;;;24.88;85.62;100233.53;10289791;28;20530;-52
2023/08/15 16:07:00;;;;;;;4.97;4.10;;;;;;;24.88;85.51;100232.72;10287590;28;20565;-52
2023/08/15 16:12:01;;;;;;;4.45;3.58;;;;;;;24.84;85.22;100226.03;10271012;28;20984;-52
2023/08/15 16:17:03;;;;;;;7.45;3.88;;;;;;;24.79;85.93;100229.41;10300400;28;20734;-53
2023/08/15 16:22:05;;;;;;;6.28;4.30;;;;;;;24.76;87.41;100223.56;10295849;28;20096;-53
2023/08/15 16:27:06;;;;;;;8.00;4.15;;;;;;;24.73;87.79;100224.00;10297456;28;20062;-52
2023/08/15 16:32:07;;;;;;;5.28;4.38;;;;;;;24.72;87.76;100220.44;10294858;28;20135;-52
2023/08/15 16:37:09;;;;;;;6.35;3.58;;;;;;;24.64;87.08;100216.06;10297829;28;20551;-53
2023/08/15 16:42:11;;;;;;;5.05;3.88;;;;;;;24.63;87.87;100219.84;10293041;28;20054;-52
2023/08/15 16:47:12;;;;;;;4.72;3.28;;;;;;;24.63;87.74;100219.84;10298690;28;20046;-52
2023/08/15 16:52:13;;;;;;;4.75;3.75;;;;;;;24.60;88.19;100209.41;10281864;28;20137;-52
2023/08/15 16:57:17;;;;;;;6.38;4.03;;;;;;;24.62;88.11;100223.63;10298625;28;20064;-50
2023/08/15 17:02:19;;;;;;;5.38;3.90;;;;;;;24.64;88.16;100224.25;10285136;28;20066;-62
2023/08/15 17:07:21;;;;;;;6.03;4.45;;;;;;;24.64;88.29;100226.97;10286493;28;20108;-52
2023/08/15 17:12:23;;;;;;;4.22;3.45;;;;;;;24.61;88.29;100243.72;10294496;28;20054;-52
2023/08/15 17:17:25;;;;;;;6.38;3.60;;;;;;;24.64;89.11;100239.75;10298079;28;20073;-52
2023/08/15 17:22:30;;;;;;;4.53;4.13;;;;;;;24.66;89.18;100240.34;10295676;28;20528;-54
2023/08/15 17:27:32;;;;;;;4.75;4.35;;;;;;;24.65;88.89;100244.13;10292636;28;20767;-54
2023/08/15 17:32:34;;;;;;;5.43;3.70;;;;;;;24.68;88.97;100255.41;10279837;28;20470;-54
2023/08/15 17:37:35;;;;;;;3.80;2.90;;;;;;;24.72;89.35;100260.44;10284163;28;20855;-57
2023/08/15 17:42:37;;;;;;;4.00;3.10;;;;;;;24.74;88.48;100261.03;10290618;28;20057;-55
2023/08/15 17:47:38;;;;;;;4.03;3.45;;;;;;;24.72;88.28;100265.88;10290523;28;20053;-55
2023/08/15 17:52:40;;;;;;;4.22;3.10;;;;;;;24.74;88.59;100269.19;10294187;28;20145;-55
2023/08/15 17:57:42;;;;;;;4.55;3.00;;;;;;;24.69;88.53;100270.69;10297381;28;20141;-55
2023/08/15 18:02:44;;;;;;;4.65;3.53;;;;;;;24.66;88.36;100283.91;10288276;28;20049;-56
2023/08/15 18:07:48;;;;;;;4.83;3.33;;;;;;;24.66;88.41;100290.16;10277122;28;20050;-56
2023/08/15 18:12:50;;;;;;;5.65;3.45;;;;;;;24.65;88.34;100303.97;10294774;28;20835;-56
2023/08/15 18:17:51;;;;;;;5.97;5.00;;;;;;;24.61;88.90;100309.03;10295512;28;20157;-56
2023/08/15 18:22:53;;;;;;;9.00;4.47;;;;;;;24.59;89.40;100322.03;10298151;28;20068;-56
2023/08/15 18:27:55;;;;;;;11.07;6.43;;;;;;;24.55;89.57;100328.91;10295462;28;20369;-56
2023/08/15 18:32:56;;;;;;;6.68;4.38;;;;;;;24.53;90.33;100336.47;10291928;28;20446;-56
2023/08/15 18:37:58;;;;;;;5.38;3.47;;;;;;;24.50;90.68;100339.59;10298453;28;20058;-55
2023/08/15 18:42:59;;;;;;;5.25;3.30;;;;;;;24.46;90.47;100346.53;10289149;28;20054;-56
2023/08/15 18:48:01;;;;;;;4.93;3.45;;;;;;;24.46;90.72;100346.53;10298109;28;20953;-55
2023/08/15 18:53:03;;;;;;;4.82;3.30;;;;;;;24.43;90.96;100355.09;10293776;28;20482;-56
2023/08/15 18:58:04;;;;;;;5.00;3.40;;;;;;;24.39;91.10;100359.28;10294923;28;20070;-56
2023/08/15 19:03:06;;;;;;;5.53;3.88;;;;;;;24.34;91.58;100359.94;10294705;28;20963;-56
2023/08/15 19:08:07;;;;;;;4.50;3.80;;;;;;;24.31;91.87;100353.03;10299870;28;20913;-55
2023/08/15 19:13:09;;;;;;;4.07;3.60;;;;;;;24.27;92.17;100359.94;10294290;28;20054;-55
2023/08/15 19:18:10;;;;;;;4.28;3.47;;;;;;;24.25;92.73;100358.47;10296922;28;20115;-55
2023/08/15 19:23:12;;;;;;;5.53;4.38;;;;;;;24.22;92.75;100359.72;10292921;28;20049;-55
2023/08/15 19:28:15;;;;;;;5.07;3.92;;;;;;;24.15;93.68;100375.22;10290497;28;20057;-58
2023/08/15 19:33:16;;;;;;;5.15;3.92;;;;;;;24.14;93.89;100368.09;10282179;28;20057;-54
2023/08/15 19:38:18;;;;;;;7.32;5.25;;;;;;;24.10;93.88;100366.88;10295308;28;21237;-57
2023/08/15 19:43:19;;;;;;;8.60;5.80;;;;;;;24.07;94.17;100361.84;10289002;28;20213;-56
2023/08/15 19:48:21;;;;;;;6.40;5.80;;;;;;;24.04;94.75;100351.41;10291144;28;20144;-57
2023/08/15 19:53:22;;;;;;;6.88;5.60;;;;;;;24.01;94.69;100358.06;10296135;28;20263;-56
2023/08/15 19:58:24;;;;;;;10.18;7.13;;;;;;;23.95;94.27;100346.16;10293583;28;20892;-56
2023/08/15 20:03:25;;;;;;;5.55;5.05;;;;;;;23.96;95.46;100349.69;10290431;28;20698;-56
2023/08/15 20:08:27;;;;;;;6.32;4.68;;;;;;;23.93;95.60;100356.41;10281714;28;20601;-56
2023/08/15 20:13:28;;;;;;;5.15;4.65;;;;;;;23.90;95.20;100350.53;10291405;28;20065;-56
2023/08/15 20:18:30;;;;;;;6.35;4.70;;;;;;;23.87;95.55;100357.25;10293108;28;20229;-56
2023/08/15 20:23:31;;;;;;;6.18;4.53;;;;;;;23.83;95.48;100358.66;10290978;28;20752;-56
2023/08/15 20:28:33;;;;;;;7.78;6.35;;;;;;;23.78;95.86;100372.03;10278195;28;20917;-56
2023/08/15 20:33:34;;;;;;;8.63;6.28;;;;;;;23.73;96.90;100355.53;10290384;28;20050;-57
2023/08/15 20:38:36;;;;;;;7.57;5.97;;;;;;;23.68;96.47;100364.28;10275200;28;20069;-56
2023/08/15 20:43:37;;;;;;;5.95;4.90;;;;;;;23.68;96.87;100358.03;10275031;28;20422;-56
2023/08/15 20:48:39;;;;;;;6.20;5.60;;;;;;;23.63;96.95;100364.91;10292527;28;20065;-57
2023/08/15 20:53:40;;;;;;;8.00;5.80;;;;;;;23.55;98.01;100367.00;10290085;28;20167;-57
2023/08/15 20:58:42;;;;;;;7.50;5.80;;;;;;;23.47;98.25;100365.31;10298028;28;20061;-56
2023/08/15 21:03:43;;;;;;;6.88;6.03;;;;;;;23.46;98.41;100371.78;10282409;28;20100;-56
2023/08/15 21:08:46;;;;;;;6.25;5.55;;;;;;;23.45;98.42;100375.56;10301472;28;20050;-56
2023/08/15 21:13:47;;;;;;;7.60;5.63;;;;;;;23.45;98.21;100368.22;10299077;28;20074;-56
2023/08/15 21:18:49;;;;;;;6.85;4.97;;;;;;;23.45;98.41;100379.09;10300754;28;20049;-57
2023/08/15 21:23:51;;;;;;;6.95;4.90;;;;;;;23.42;97.80;100382.22;10309887;28;20046;-57
2023/08/15 21:28:52;;;;;;;6.22;5.63;;;;;;;23.39;98.61;100384.50;10310809;28;20050;-55
2023/08/15 21:33:54;;;;;;;6.90;6.30;;;;;;;23.35;98.03;100385.97;10306763;28;20241;-56
2023/08/15 21:38:55;;;;;;;7.10;5.53;;;;;;;23.30;97.95;100395.56;10297292;28;20139;-56
2023/08/15 21:43:57;;;;;;;7.45;6.20;;;;;;;23.28;98.58;100394.94;10309951;28;20136;-56
2023/08/15 21:48:58;;;;;;;6.50;5.78;;;;;;;23.26;99.19;100394.28;10296945;28;20062;-56
2023/08/15 21:53:59;;;;;;;5.57;5.07;;;;;;;23.24;99.28;100390.09;10298827;28;20062;-56
2023/08/15 21:59:02;;;;;;;5.70;5.20;;;;;;;23.22;99.30;100390.28;10297863;28;20092;-55
2023/08/15 22:04:03;;;;;;;6.57;5.45;;;;;;;23.21;99.23;100396.78;10292957;28;22539;-57
2023/08/15 22:09:06;;;;;;;6.25;5.35;;;;;;;23.19;99.72;100404.28;10309369;28;20845;-55
2023/08/15 22:14:07;;;;;;;6.00;5.40;;;;;;;23.14;100.00;100401.34;10301751;28;20840;-56
2023/08/15 22:19:09;;;;;;;5.80;4.75;;;;;;;23.14;100.00;100411.38;10292742;28;20188;-56
2023/08/15 22:24:10;;;;;;;6.53;5.88;;;;;;;23.14;100.00;100412.19;10306960;28;20141;-56
2023/08/15 22:29:12;;;;;;;6.13;5.10;;;;;;;23.12;100.00;100403.44;10291317;28;20050;-55
2023/08/15 22:34:14;;;;;;;10.05;5.63;;;;;;;23.11;100.00;100397.16;10304660;28;20128;-60
2023/08/15 22:39:16;;;;;;;5.63;4.80;;;;;;;23.11;100.00;100401.75;10304910;28;20079;-56
2023/08/15 22:44:17;;;;;;;6.55;5.85;;;;;;;23.08;100.00;100402.13;10295115;28;20811;-56
2023/08/15 22:49:19;;;;;;;5.95;5.13;;;;;;;23.02;100.00;100397.50;10306538;28;20728;-56
2023/08/15 22:54:20;;;;;;;8.80;5.88;;;;;;;22.99;100.00;100397.91;10302966;28;20137;-55
2023/08/15 22:59:21;;;;;;;6.65;6.00;;;;;;;22.94;100.00;100403.94;10303332;28;20465;-56
2023/08/15 23:04:23;;;;;;;7.90;5.88;;;;;;;22.89;100.00;100404.53;10301826;28;20274;-55
2023/08/15 23:09:24;;;;;;;6.15;5.45;;;;;;;22.85;100.00;100408.69;10301034;28;20204;-55
2023/08/15 23:14:26;;;;;;;9.95;6.57;;;;;;;22.81;100.00;100401.16;10305200;28;21472;-55